sensor_id;sensor_type;location;lat;lon;timestamp;P1;durP1;ratioP1;P2;durP2;ratioP2
73733;SDS011;62039;50.000;9.064;2022-08-25T00:01:28;2.60;;;2.40;;
73733;SDS011;62039;50.000;9.064;2022-08-25T00:03:58;1.83;;;1.73;;
73733;SDS011;62039;50.000;9.064;2022-08-25T00:06:27;2.10;;;1.93;;
73733;SDS011;62039;50.000;9.064;2022-08-25T00:08:54;2.30;;;2.10;;
73733;SDS011;62039;50.000;9.064;2022-08-25T00:11:23;2.30;;;2.10;;
73733;SDS011;62039;50.000;9.064;2022-08-25T00:13:51;2.80;;;2.03;;
73733;SDS011;62039;50.000;9.064;2022-08-25T00:16:21;2.83;;;2.23;;
73733;SDS011;62039;50.000;9.064;2022-08-25T00:18:49;2.40;;;2.20;;
73733;SDS011;62039;50.000;9.064;2022-08-25T00:21:17;2.20;;;2.00;;
73733;SDS011;62039;50.000;9.064;2022-08-25T00:23:44;3.23;;;2.17;;
73733;SDS011;62039;50.000;9.064;2022-08-25T00:26:11;2.10;;;1.90;;
73733;SDS011;62039;50.000;9.064;2022-08-25T00:28:40;2.30;;;2.10;;
73733;SDS011;62039;50.000;9.064;2022-08-25T00:31:09;2.93;;;2.47;;
73733;SDS011;62039;50.000;9.064;2022-08-25T00:33:37;2.80;;;2.60;;
73733;SDS011;62039;50.000;9.064;2022-08-25T00:36:03;2.50;;;2.30;;
73733;SDS011;62039;50.000;9.064;2022-08-25T00:38:30;2.80;;;2.57;;
73733;SDS011;62039;50.000;9.064;2022-08-25T00:40:56;2.50;;;2.27;;
73733;SDS011;62039;50.000;9.064;2022-08-25T00:43:23;2.60;;;2.30;;
73733;SDS011;62039;50.000;9.064;2022-08-25T00:45:51;2.67;;;2.47;;
73733;SDS011;62039;50.000;9.064;2022-08-25T00:48:18;4.30;;;2.60;;
73733;SDS011;62039;50.000;9.064;2022-08-25T00:50:44;2.40;;;2.20;;
73733;SDS011;62039;50.000;9.064;2022-08-25T00:53:12;2.50;;;2.27;;
73733;SDS011;62039;50.000;9.064;2022-08-25T00:55:38;2.40;;;2.20;;
73733;SDS011;62039;50.000;9.064;2022-08-25T00:58:07;3.90;;;2.70;;
73733;SDS011;62039;50.000;9.064;2022-08-25T01:00:37;2.83;;;2.40;;
73733;SDS011;62039;50.000;9.064;2022-08-25T01:03:07;2.63;;;2.37;;
73733;SDS011;62039;50.000;9.064;2022-08-25T01:05:34;2.60;;;2.40;;
73733;SDS011;62039;50.000;9.064;2022-08-25T01:08:01;2.57;;;2.37;;
73733;SDS011;62039;50.000;9.064;2022-08-25T01:10:32;2.70;;;2.50;;
73733;SDS011;62039;50.000;9.064;2022-08-25T01:13:02;2.83;;;2.57;;
73733;SDS011;62039;50.000;9.064;2022-08-25T01:15:35;2.80;;;2.60;;
73733;SDS011;62039;50.000;9.064;2022-08-25T01:18:03;3.37;;;3.07;;
73733;SDS011;62039;50.000;9.064;2022-08-25T01:20:31;3.03;;;2.73;;
73733;SDS011;62039;50.000;9.064;2022-08-25T01:23:00;3.03;;;2.70;;
73733;SDS011;62039;50.000;9.064;2022-08-25T01:25:29;3.17;;;2.67;;
73733;SDS011;62039;50.000;9.064;2022-08-25T01:28:02;3.03;;;2.60;;
73733;SDS011;62039;50.000;9.064;2022-08-25T01:30:30;2.70;;;2.50;;
73733;SDS011;62039;50.000;9.064;2022-08-25T01:32:57;3.43;;;2.40;;
73733;SDS011;62039;50.000;9.064;2022-08-25T01:35:23;3.10;;;2.70;;
73733;SDS011;62039;50.000;9.064;2022-08-25T01:37:50;3.67;;;3.00;;
73733;SDS011;62039;50.000;9.064;2022-08-25T01:40:18;3.13;;;2.83;;
73733;SDS011;62039;50.000;9.064;2022-08-25T01:42:46;3.17;;;2.93;;
73733;SDS011;62039;50.000;9.064;2022-08-25T01:45:22;3.83;;;2.60;;
73733;SDS011;62039;50.000;9.064;2022-08-25T01:47:50;3.17;;;2.60;;
73733;SDS011;62039;50.000;9.064;2022-08-25T01:50:17;5.60;;;2.77;;
73733;SDS011;62039;50.000;9.064;2022-08-25T01:52:45;3.63;;;2.50;;
73733;SDS011;62039;50.000;9.064;2022-08-25T01:55:15;3.20;;;2.77;;
73733;SDS011;62039;50.000;9.064;2022-08-25T01:57:43;2.70;;;2.50;;
73733;SDS011;62039;50.000;9.064;2022-08-25T02:00:10;2.77;;;2.57;;
73733;SDS011;62039;50.000;9.064;2022-08-25T02:02:39;2.70;;;2.50;;
73733;SDS011;62039;50.000;9.064;2022-08-25T02:05:08;2.83;;;2.63;;
73733;SDS011;62039;50.000;9.064;2022-08-25T02:07:35;2.57;;;2.37;;
73733;SDS011;62039;50.000;9.064;2022-08-25T02:10:03;3.47;;;2.40;;
73733;SDS011;62039;50.000;9.064;2022-08-25T02:12:32;2.80;;;2.60;;
73733;SDS011;62039;50.000;9.064;2022-08-25T02:15:01;2.30;;;2.10;;
73733;SDS011;62039;50.000;9.064;2022-08-25T02:17:28;2.70;;;2.50;;
73733;SDS011;62039;50.000;9.064;2022-08-25T02:19:55;2.60;;;2.40;;
73733;SDS011;62039;50.000;9.064;2022-08-25T02:22:22;2.70;;;2.50;;
73733;SDS011;62039;50.000;9.064;2022-08-25T02:24:49;2.80;;;2.50;;
73733;SDS011;62039;50.000;9.064;2022-08-25T02:27:15;2.67;;;2.47;;
73733;SDS011;62039;50.000;9.064;2022-08-25T02:29:42;2.43;;;2.23;;
73733;SDS011;62039;50.000;9.064;2022-08-25T02:32:10;2.93;;;2.60;;
73733;SDS011;62039;50.000;9.064;2022-08-25T02:34:36;2.93;;;2.73;;
73733;SDS011;62039;50.000;9.064;2022-08-25T02:37:03;2.90;;;2.60;;
73733;SDS011;62039;50.000;9.064;2022-08-25T02:39:30;2.97;;;2.50;;
73733;SDS011;62039;50.000;9.064;2022-08-25T02:41:56;3.00;;;2.80;;
73733;SDS011;62039;50.000;9.064;2022-08-25T02:44:23;2.60;;;2.40;;
73733;SDS011;62039;50.000;9.064;2022-08-25T02:46:49;2.83;;;2.60;;
73733;SDS011;62039;50.000;9.064;2022-08-25T02:49:17;2.43;;;2.27;;
73733;SDS011;62039;50.000;9.064;2022-08-25T02:51:44;2.87;;;2.43;;
73733;SDS011;62039;50.000;9.064;2022-08-25T02:54:10;2.80;;;2.50;;
73733;SDS011;62039;50.000;9.064;2022-08-25T02:56:37;2.67;;;2.47;;
73733;SDS011;62039;50.000;9.064;2022-08-25T02:59:03;3.37;;;3.07;;
73733;SDS011;62039;50.000;9.064;2022-08-25T03:01:30;3.00;;;2.70;;
73733;SDS011;62039;50.000;9.064;2022-08-25T03:03:59;2.67;;;2.47;;
73733;SDS011;62039;50.000;9.064;2022-08-25T03:06:27;2.97;;;2.77;;
73733;SDS011;62039;50.000;9.064;2022-08-25T03:08:55;2.67;;;2.47;;
73733;SDS011;62039;50.000;9.064;2022-08-25T03:11:21;2.80;;;2.60;;
73733;SDS011;62039;50.000;9.064;2022-08-25T03:13:48;3.00;;;2.73;;
73733;SDS011;62039;50.000;9.064;2022-08-25T03:16:14;3.83;;;2.93;;
73733;SDS011;62039;50.000;9.064;2022-08-25T03:18:41;3.27;;;2.93;;
73733;SDS011;62039;50.000;9.064;2022-08-25T03:21:08;3.67;;;2.70;;
73733;SDS011;62039;50.000;9.064;2022-08-25T03:23:37;3.57;;;3.17;;
73733;SDS011;62039;50.000;9.064;2022-08-25T03:26:04;3.40;;;3.10;;
73733;SDS011;62039;50.000;9.064;2022-08-25T03:28:31;2.80;;;2.60;;
73733;SDS011;62039;50.000;9.064;2022-08-25T03:30:58;3.20;;;2.83;;
73733;SDS011;62039;50.000;9.064;2022-08-25T03:33:25;2.73;;;2.53;;
73733;SDS011;62039;50.000;9.064;2022-08-25T03:35:52;3.00;;;2.80;;
73733;SDS011;62039;50.000;9.064;2022-08-25T03:38:19;2.90;;;2.70;;
73733;SDS011;62039;50.000;9.064;2022-08-25T03:40:47;2.87;;;2.67;;
73733;SDS011;62039;50.000;9.064;2022-08-25T03:43:14;3.13;;;2.83;;
73733;SDS011;62039;50.000;9.064;2022-08-25T03:45:42;3.37;;;2.87;;
73733;SDS011;62039;50.000;9.064;2022-08-25T03:48:10;2.90;;;2.63;;
73733;SDS011;62039;50.000;9.064;2022-08-25T03:50:36;4.10;;;3.00;;
73733;SDS011;62039;50.000;9.064;2022-08-25T03:53:16;3.57;;;2.80;;
73733;SDS011;62039;50.000;9.064;2022-08-25T03:55:43;3.83;;;3.43;;
73733;SDS011;62039;50.000;9.064;2022-08-25T03:58:11;3.97;;;3.10;;
73733;SDS011;62039;50.000;9.064;2022-08-25T04:00:38;7.53;;;3.10;;
73733;SDS011;62039;50.000;9.064;2022-08-25T04:03:05;5.07;;;3.47;;
73733;SDS011;62039;50.000;9.064;2022-08-25T04:05:31;3.87;;;3.10;;
73733;SDS011;62039;50.000;9.064;2022-08-25T04:07:59;3.33;;;2.87;;
73733;SDS011;62039;50.000;9.064;2022-08-25T04:10:25;3.90;;;3.20;;
73733;SDS011;62039;50.000;9.064;2022-08-25T04:12:52;3.80;;;2.90;;
73733;SDS011;62039;50.000;9.064;2022-08-25T04:15:20;2.73;;;2.53;;
73733;SDS011;62039;50.000;9.064;2022-08-25T04:17:47;9.00;;;3.53;;
73733;SDS011;62039;50.000;9.064;2022-08-25T04:20:17;3.97;;;3.10;;
73733;SDS011;62039;50.000;9.064;2022-08-25T04:22:43;4.63;;;2.67;;
73733;SDS011;62039;50.000;9.064;2022-08-25T04:25:10;4.77;;;2.87;;
73733;SDS011;62039;50.000;9.064;2022-08-25T04:27:37;5.43;;;3.30;;
73733;SDS011;62039;50.000;9.064;2022-08-25T04:30:04;14.13;;;4.10;;
73733;SDS011;62039;50.000;9.064;2022-08-25T04:32:35;12.07;;;4.87;;
73733;SDS011;62039;50.000;9.064;2022-08-25T04:35:02;6.17;;;3.27;;
73733;SDS011;62039;50.000;9.064;2022-08-25T04:37:29;6.73;;;3.93;;
73733;SDS011;62039;50.000;9.064;2022-08-25T04:39:56;6.50;;;3.57;;
73733;SDS011;62039;50.000;9.064;2022-08-25T04:42:23;6.80;;;3.77;;
73733;SDS011;62039;50.000;9.064;2022-08-25T04:44:49;5.43;;;3.63;;
73733;SDS011;62039;50.000;9.064;2022-08-25T04:47:16;5.90;;;3.77;;
73733;SDS011;62039;50.000;9.064;2022-08-25T04:49:44;4.53;;;2.97;;
73733;SDS011;62039;50.000;9.064;2022-08-25T04:52:10;3.90;;;3.50;;
73733;SDS011;62039;50.000;9.064;2022-08-25T04:54:39;3.50;;;3.20;;
73733;SDS011;62039;50.000;9.064;2022-08-25T04:57:06;3.93;;;3.07;;
73733;SDS011;62039;50.000;9.064;2022-08-25T04:59:32;3.30;;;3.00;;
73733;SDS011;62039;50.000;9.064;2022-08-25T05:01:59;4.07;;;3.23;;
73733;SDS011;62039;50.000;9.064;2022-08-25T05:04:26;4.23;;;3.50;;
73733;SDS011;62039;50.000;9.064;2022-08-25T05:06:56;5.37;;;3.40;;
73733;SDS011;62039;50.000;9.064;2022-08-25T05:09:22;3.20;;;2.90;;
73733;SDS011;62039;50.000;9.064;2022-08-25T05:11:50;3.53;;;3.23;;
73733;SDS011;62039;50.000;9.064;2022-08-25T05:14:17;4.97;;;3.43;;
73733;SDS011;62039;50.000;9.064;2022-08-25T05:16:43;4.30;;;3.67;;
73733;SDS011;62039;50.000;9.064;2022-08-25T05:19:10;4.93;;;3.27;;
73733;SDS011;62039;50.000;9.064;2022-08-25T05:21:37;3.53;;;3.23;;
73733;SDS011;62039;50.000;9.064;2022-08-25T05:24:05;4.40;;;3.40;;
73733;SDS011;62039;50.000;9.064;2022-08-25T05:26:32;3.63;;;3.30;;
73733;SDS011;62039;50.000;9.064;2022-08-25T05:29:00;3.80;;;3.50;;
73733;SDS011;62039;50.000;9.064;2022-08-25T05:31:28;4.67;;;3.03;;
73733;SDS011;62039;50.000;9.064;2022-08-25T05:33:54;4.60;;;3.70;;
73733;SDS011;62039;50.000;9.064;2022-08-25T05:36:22;6.87;;;3.80;;
73733;SDS011;62039;50.000;9.064;2022-08-25T05:38:51;5.03;;;3.63;;
73733;SDS011;62039;50.000;9.064;2022-08-25T05:41:19;5.00;;;4.00;;
73733;SDS011;62039;50.000;9.064;2022-08-25T05:43:50;4.40;;;3.97;;
73733;SDS011;62039;50.000;9.064;2022-08-25T05:46:16;3.67;;;3.37;;
73733;SDS011;62039;50.000;9.064;2022-08-25T05:48:44;4.23;;;3.80;;
73733;SDS011;62039;50.000;9.064;2022-08-25T05:51:11;3.97;;;3.53;;
73733;SDS011;62039;50.000;9.064;2022-08-25T05:53:39;4.10;;;3.70;;
73733;SDS011;62039;50.000;9.064;2022-08-25T05:56:08;4.17;;;3.77;;
73733;SDS011;62039;50.000;9.064;2022-08-25T05:58:36;4.13;;;3.80;;
73733;SDS011;62039;50.000;9.064;2022-08-25T06:01:03;4.67;;;4.20;;
73733;SDS011;62039;50.000;9.064;2022-08-25T06:03:30;4.30;;;3.60;;
73733;SDS011;62039;50.000;9.064;2022-08-25T06:06:03;4.97;;;3.73;;
73733;SDS011;62039;50.000;9.064;2022-08-25T06:08:30;5.33;;;3.67;;
73733;SDS011;62039;50.000;9.064;2022-08-25T06:10:57;3.80;;;3.50;;
73733;SDS011;62039;50.000;9.064;2022-08-25T06:13:23;5.40;;;4.60;;
73733;SDS011;62039;50.000;9.064;2022-08-25T06:15:57;4.77;;;3.93;;
73733;SDS011;62039;50.000;9.064;2022-08-25T06:18:24;5.07;;;4.07;;
73733;SDS011;62039;50.000;9.064;2022-08-25T06:20:51;5.17;;;4.10;;
73733;SDS011;62039;50.000;9.064;2022-08-25T06:23:18;4.70;;;3.90;;
73733;SDS011;62039;50.000;9.064;2022-08-25T06:25:47;5.20;;;3.90;;
73733;SDS011;62039;50.000;9.064;2022-08-25T06:28:14;6.43;;;4.83;;
73733;SDS011;62039;50.000;9.064;2022-08-25T06:30:41;5.27;;;4.77;;
73733;SDS011;62039;50.000;9.064;2022-08-25T06:33:09;5.70;;;4.07;;
73733;SDS011;62039;50.000;9.064;2022-08-25T06:35:36;5.00;;;4.50;;
73733;SDS011;62039;50.000;9.064;2022-08-25T06:38:05;4.13;;;3.80;;
73733;SDS011;62039;50.000;9.064;2022-08-25T06:40:32;4.63;;;4.20;;
73733;SDS011;62039;50.000;9.064;2022-08-25T06:42:59;5.13;;;3.50;;
73733;SDS011;62039;50.000;9.064;2022-08-25T06:45:26;4.67;;;4.20;;
73733;SDS011;62039;50.000;9.064;2022-08-25T06:47:52;4.27;;;3.87;;
73733;SDS011;62039;50.000;9.064;2022-08-25T06:50:20;4.83;;;4.43;;
73733;SDS011;62039;50.000;9.064;2022-08-25T06:52:47;4.50;;;4.00;;
73733;SDS011;62039;50.000;9.064;2022-08-25T06:55:13;4.40;;;4.10;;
73733;SDS011;62039;50.000;9.064;2022-08-25T06:57:40;4.13;;;3.80;;
73733;SDS011;62039;50.000;9.064;2022-08-25T07:00:07;5.10;;;4.57;;
73733;SDS011;62039;50.000;9.064;2022-08-25T07:02:34;4.93;;;4.43;;
73733;SDS011;62039;50.000;9.064;2022-08-25T07:05:01;4.57;;;4.20;;
73733;SDS011;62039;50.000;9.064;2022-08-25T07:07:31;4.93;;;4.40;;
73733;SDS011;62039;50.000;9.064;2022-08-25T07:10:09;4.57;;;4.20;;
73733;SDS011;62039;50.000;9.064;2022-08-25T07:12:36;4.27;;;3.97;;
73733;SDS011;62039;50.000;9.064;2022-08-25T07:15:03;4.37;;;3.97;;
73733;SDS011;62039;50.000;9.064;2022-08-25T07:17:45;4.03;;;3.73;;
73733;SDS011;62039;50.000;9.064;2022-08-25T07:20:12;4.47;;;4.10;;
73733;SDS011;62039;50.000;9.064;2022-08-25T07:22:40;4.23;;;3.93;;
73733;SDS011;62039;50.000;9.064;2022-08-25T07:25:07;4.23;;;3.83;;
73733;SDS011;62039;50.000;9.064;2022-08-25T07:27:34;4.83;;;4.43;;
73733;SDS011;62039;50.000;9.064;2022-08-25T07:30:01;4.13;;;3.83;;
73733;SDS011;62039;50.000;9.064;2022-08-25T07:32:29;4.40;;;4.10;;
73733;SDS011;62039;50.000;9.064;2022-08-25T07:34:56;4.33;;;3.93;;
73733;SDS011;62039;50.000;9.064;2022-08-25T07:37:22;4.77;;;4.23;;
73733;SDS011;62039;50.000;9.064;2022-08-25T07:40:12;4.17;;;3.87;;
73733;SDS011;62039;50.000;9.064;2022-08-25T07:42:40;4.33;;;4.03;;
73733;SDS011;62039;50.000;9.064;2022-08-25T07:45:07;4.23;;;3.93;;
73733;SDS011;62039;50.000;9.064;2022-08-25T07:47:35;4.57;;;4.13;;
73733;SDS011;62039;50.000;9.064;2022-08-25T07:50:02;4.03;;;3.67;;
73733;SDS011;62039;50.000;9.064;2022-08-25T07:52:31;5.77;;;3.67;;
73733;SDS011;62039;50.000;9.064;2022-08-25T07:54:58;3.97;;;3.67;;
73733;SDS011;62039;50.000;9.064;2022-08-25T07:57:26;3.90;;;3.60;;
73733;SDS011;62039;50.000;9.064;2022-08-25T07:59:53;4.27;;;3.87;;
73733;SDS011;62039;50.000;9.064;2022-08-25T08:02:20;4.10;;;3.70;;
73733;SDS011;62039;50.000;9.064;2022-08-25T08:04:50;4.53;;;3.90;;
73733;SDS011;62039;50.000;9.064;2022-08-25T08:07:19;3.70;;;3.40;;
73733;SDS011;62039;50.000;9.064;2022-08-25T08:09:48;3.93;;;3.53;;
73733;SDS011;62039;50.000;9.064;2022-08-25T08:12:21;3.93;;;3.53;;
73733;SDS011;62039;50.000;9.064;2022-08-25T08:14:50;3.73;;;3.47;;
73733;SDS011;62039;50.000;9.064;2022-08-25T08:17:17;4.37;;;3.97;;
73733;SDS011;62039;50.000;9.064;2022-08-25T08:19:44;4.03;;;3.73;;
73733;SDS011;62039;50.000;9.064;2022-08-25T08:22:11;3.93;;;3.63;;
73733;SDS011;62039;50.000;9.064;2022-08-25T08:24:39;3.83;;;3.53;;
73733;SDS011;62039;50.000;9.064;2022-08-25T08:27:19;3.70;;;3.40;;
73733;SDS011;62039;50.000;9.064;2022-08-25T08:29:47;3.90;;;3.60;;
73733;SDS011;62039;50.000;9.064;2022-08-25T08:32:15;4.03;;;3.72;;
73733;SDS011;62039;50.000;9.064;2022-08-25T08:34:41;3.90;;;3.60;;
73733;SDS011;62039;50.000;9.064;2022-08-25T08:37:09;3.63;;;3.33;;
73733;SDS011;62039;50.000;9.064;2022-08-25T08:39:36;3.90;;;3.60;;
73733;SDS011;62039;50.000;9.064;2022-08-25T08:42:12;3.78;;;3.20;;
73733;SDS011;62039;50.000;9.064;2022-08-25T08:44:53;3.75;;;3.45;;
73733;SDS011;62039;50.000;9.064;2022-08-25T08:47:31;3.85;;;3.55;;
73733;SDS011;62039;50.000;9.064;2022-08-25T08:50:15;4.07;;;3.78;;
73733;SDS011;62039;50.000;9.064;2022-08-25T08:52:59;4.25;;;3.55;;
73733;SDS011;62039;50.000;9.064;2022-08-25T08:55:31;3.85;;;3.55;;
73733;SDS011;62039;50.000;9.064;2022-08-25T08:58:03;3.83;;;3.53;;
73733;SDS011;62039;50.000;9.064;2022-08-25T09:00:36;3.78;;;3.47;;
73733;SDS011;62039;50.000;9.064;2022-08-25T09:03:07;3.53;;;3.22;;
73733;SDS011;62039;50.000;9.064;2022-08-25T09:05:38;3.40;;;3.13;;
73733;SDS011;62039;50.000;9.064;2022-08-25T09:08:12;4.07;;;3.70;;
73733;SDS011;62039;50.000;9.064;2022-08-25T09:10:49;3.83;;;3.53;;
73733;SDS011;62039;50.000;9.064;2022-08-25T09:13:25;3.92;;;3.42;;
73733;SDS011;62039;50.000;9.064;2022-08-25T09:16:01;3.47;;;3.17;;
73733;SDS011;62039;50.000;9.064;2022-08-25T09:18:38;3.75;;;3.40;;
73733;SDS011;62039;50.000;9.064;2022-08-25T09:21:19;3.08;;;2.88;;
73733;SDS011;62039;50.000;9.064;2022-08-25T09:23:55;2.70;;;2.50;;
73733;SDS011;62039;50.000;9.064;2022-08-25T09:26:32;3.03;;;2.83;;
73733;SDS011;62039;50.000;9.064;2022-08-25T09:29:03;3.45;;;3.15;;
73733;SDS011;62039;50.000;9.064;2022-08-25T09:31:42;2.70;;;2.50;;
73733;SDS011;62039;50.000;9.064;2022-08-25T09:34:12;3.90;;;3.28;;
73733;SDS011;62039;50.000;9.064;2022-08-25T09:36:42;3.90;;;3.47;;
73733;SDS011;62039;50.000;9.064;2022-08-25T09:39:08;3.35;;;3.05;;
73733;SDS011;62039;50.000;9.064;2022-08-25T09:41:40;3.00;;;2.80;;
73733;SDS011;62039;50.000;9.064;2022-08-25T09:44:17;2.83;;;2.63;;
73733;SDS011;62039;50.000;9.064;2022-08-25T09:49:36;2.75;;;2.55;;
73733;SDS011;62039;50.000;9.064;2022-08-25T09:52:24;2.78;;;2.58;;
73733;SDS011;62039;50.000;9.064;2022-08-25T09:54:56;2.50;;;2.33;;
73733;SDS011;62039;50.000;9.064;2022-08-25T09:57:32;2.85;;;2.63;;
73733;SDS011;62039;50.000;9.064;2022-08-25T10:00:11;2.95;;;2.75;;
73733;SDS011;62039;50.000;9.064;2022-08-25T10:02:39;2.67;;;2.47;;
73733;SDS011;62039;50.000;9.064;2022-08-25T10:05:17;3.35;;;3.05;;
73733;SDS011;62039;50.000;9.064;2022-08-25T10:07:49;2.72;;;2.53;;
73733;SDS011;62039;50.000;9.064;2022-08-25T10:10:24;2.63;;;2.42;;
73733;SDS011;62039;50.000;9.064;2022-08-25T10:12:58;2.58;;;2.38;;
73733;SDS011;62039;50.000;9.064;2022-08-25T10:15:28;2.63;;;2.45;;
73733;SDS011;62039;50.000;9.064;2022-08-25T10:17:59;2.80;;;2.60;;
73733;SDS011;62039;50.000;9.064;2022-08-25T10:20:50;3.22;;;2.92;;
73733;SDS011;62039;50.000;9.064;2022-08-25T10:23:27;2.60;;;2.28;;
73733;SDS011;62039;50.000;9.064;2022-08-25T10:25:55;2.67;;;2.47;;
73733;SDS011;62039;50.000;9.064;2022-08-25T10:28:32;3.00;;;2.70;;
73733;SDS011;62039;50.000;9.064;2022-08-25T10:31:07;2.42;;;2.22;;
73733;SDS011;62039;50.000;9.064;2022-08-25T10:33:41;2.58;;;2.38;;
73733;SDS011;62039;50.000;9.064;2022-08-25T10:36:19;4.07;;;2.50;;
73733;SDS011;62039;50.000;9.064;2022-08-25T10:38:48;2.58;;;2.38;;
73733;SDS011;62039;50.000;9.064;2022-08-25T10:41:26;2.55;;;2.35;;
73733;SDS011;62039;50.000;9.064;2022-08-25T10:44:11;2.25;;;2.15;;
73733;SDS011;62039;50.000;9.064;2022-08-25T10:46:44;2.20;;;2.10;;
73733;SDS011;62039;50.000;9.064;2022-08-25T10:49:15;2.58;;;2.38;;
73733;SDS011;62039;50.000;9.064;2022-08-25T10:51:48;2.65;;;2.45;;
73733;SDS011;62039;50.000;9.064;2022-08-25T10:54:30;2.33;;;2.20;;
73733;SDS011;62039;50.000;9.064;2022-08-25T10:57:08;2.40;;;2.20;;
73733;SDS011;62039;50.000;9.064;2022-08-25T10:59:47;2.65;;;2.40;;
73733;SDS011;62039;50.000;9.064;2022-08-25T11:05:20;2.45;;;2.20;;
73733;SDS011;62039;50.000;9.064;2022-08-25T11:07:53;2.65;;;2.45;;
73733;SDS011;62039;50.000;9.064;2022-08-25T11:10:30;2.53;;;2.35;;
73733;SDS011;62039;50.000;9.064;2022-08-25T11:13:05;2.50;;;2.30;;
73733;SDS011;62039;50.000;9.064;2022-08-25T11:15:37;2.50;;;2.30;;
73733;SDS011;62039;50.000;9.064;2022-08-25T11:18:28;2.80;;;2.60;;
73733;SDS011;62039;50.000;9.064;2022-08-25T11:20:59;2.70;;;2.50;;
73733;SDS011;62039;50.000;9.064;2022-08-25T11:23:34;2.50;;;2.30;;
73733;SDS011;62039;50.000;9.064;2022-08-25T11:26:06;2.90;;;2.70;;
73733;SDS011;62039;50.000;9.064;2022-08-25T11:28:46;2.25;;;2.15;;
73733;SDS011;62039;50.000;9.064;2022-08-25T11:31:19;2.38;;;2.25;;
73733;SDS011;62039;50.000;9.064;2022-08-25T11:33:48;2.65;;;2.28;;
73733;SDS011;62039;50.000;9.064;2022-08-25T11:36:24;2.40;;;2.20;;
73733;SDS011;62039;50.000;9.064;2022-08-25T11:38:59;2.50;;;2.30;;
73733;SDS011;62039;50.000;9.064;2022-08-25T11:41:38;3.63;;;2.33;;
73733;SDS011;62039;50.000;9.064;2022-08-25T11:44:17;2.47;;;2.28;;
73733;SDS011;62039;50.000;9.064;2022-08-25T11:47:03;2.60;;;2.40;;
73733;SDS011;62039;50.000;9.064;2022-08-25T11:49:51;2.90;;;2.70;;
73733;SDS011;62039;50.000;9.064;2022-08-25T11:55:18;2.70;;;2.50;;
73733;SDS011;62039;50.000;9.064;2022-08-25T11:57:49;2.55;;;2.35;;
73733;SDS011;62039;50.000;9.064;2022-08-25T12:00:35;3.03;;;2.65;;
73733;SDS011;62039;50.000;9.064;2022-08-25T12:06:21;3.72;;;2.33;;
73733;SDS011;62039;50.000;9.064;2022-08-25T12:08:53;35.08;;;6.45;;
73733;SDS011;62039;50.000;9.064;2022-08-25T12:11:50;61.30;;;10.95;;
73733;SDS011;62039;50.000;9.064;2022-08-25T12:14:34;8.80;;;3.20;;
73733;SDS011;62039;50.000;9.064;2022-08-25T12:17:10;5.85;;;2.90;;
73733;SDS011;62039;50.000;9.064;2022-08-25T12:19:51;2.50;;;2.13;;
73733;SDS011;62039;50.000;9.064;2022-08-25T12:22:40;3.00;;;2.33;;
73733;SDS011;62039;50.000;9.064;2022-08-25T12:25:12;2.30;;;2.10;;
73733;SDS011;62039;50.000;9.064;2022-08-25T12:28:02;3.13;;;2.53;;
73733;SDS011;62039;50.000;9.064;2022-08-25T12:30:37;4.47;;;2.35;;
73733;SDS011;62039;50.000;9.064;2022-08-25T12:33:11;2.30;;;2.03;;
73733;SDS011;62039;50.000;9.064;2022-08-25T12:35:50;6.70;;;2.22;;
73733;SDS011;62039;50.000;9.064;2022-08-25T12:38:26;2.30;;;2.10;;
73733;SDS011;62039;50.000;9.064;2022-08-25T12:40:57;2.58;;;2.38;;
73733;SDS011;62039;50.000;9.064;2022-08-25T12:43:28;2.33;;;2.13;;
73733;SDS011;62039;50.000;9.064;2022-08-25T12:49:04;2.20;;;2.00;;
73733;SDS011;62039;50.000;9.064;2022-08-25T12:51:43;2.50;;;2.30;;
73733;SDS011;62039;50.000;9.064;2022-08-25T12:54:16;2.28;;;2.05;;
73733;SDS011;62039;50.000;9.064;2022-08-25T12:56:49;2.30;;;2.05;;
73733;SDS011;62039;50.000;9.064;2022-08-25T12:59:21;2.28;;;2.17;;
73733;SDS011;62039;50.000;9.064;2022-08-25T13:08:03;2.55;;;2.00;;
73733;SDS011;62039;50.000;9.064;2022-08-25T13:10:45;1.90;;;1.80;;
73733;SDS011;62039;50.000;9.064;2022-08-25T13:13:18;2.30;;;2.10;;
73733;SDS011;62039;50.000;9.064;2022-08-25T13:15:58;2.22;;;2.03;;
73733;SDS011;62039;50.000;9.064;2022-08-25T13:18:27;2.00;;;1.90;;
73733;SDS011;62039;50.000;9.064;2022-08-25T13:21:01;1.90;;;1.80;;
73733;SDS011;62039;50.000;9.064;2022-08-25T13:23:33;2.28;;;2.17;;
73733;SDS011;62039;50.000;9.064;2022-08-25T13:26:02;2.20;;;2.00;;
73733;SDS011;62039;50.000;9.064;2022-08-25T13:28:31;2.08;;;1.98;;
73733;SDS011;62039;50.000;9.064;2022-08-25T13:31:03;2.30;;;2.00;;
73733;SDS011;62039;50.000;9.064;2022-08-25T13:33:32;1.95;;;1.85;;
73733;SDS011;62039;50.000;9.064;2022-08-25T13:36:01;2.50;;;2.30;;
73733;SDS011;62039;50.000;9.064;2022-08-25T13:38:33;2.00;;;1.90;;
73733;SDS011;62039;50.000;9.064;2022-08-25T13:41:01;2.10;;;1.90;;
73733;SDS011;62039;50.000;9.064;2022-08-25T13:43:34;2.13;;;1.92;;
73733;SDS011;62039;50.000;9.064;2022-08-25T13:46:03;1.77;;;1.67;;
73733;SDS011;62039;50.000;9.064;2022-08-25T13:48:31;1.92;;;1.83;;
73733;SDS011;62039;50.000;9.064;2022-08-25T13:51:07;1.77;;;1.67;;
73733;SDS011;62039;50.000;9.064;2022-08-25T13:53:46;1.90;;;1.80;;
73733;SDS011;62039;50.000;9.064;2022-08-25T13:56:20;1.90;;;1.80;;
73733;SDS011;62039;50.000;9.064;2022-08-25T13:58:51;2.75;;;2.10;;
73733;SDS011;62039;50.000;9.064;2022-08-25T14:01:24;2.17;;;1.98;;
73733;SDS011;62039;50.000;9.064;2022-08-25T14:04:19;1.83;;;1.73;;
73733;SDS011;62039;50.000;9.064;2022-08-25T14:10:00;1.70;;;1.60;;
73733;SDS011;62039;50.000;9.064;2022-08-25T14:12:34;1.92;;;1.80;;
73733;SDS011;62039;50.000;9.064;2022-08-25T14:15:05;1.80;;;1.70;;
73733;SDS011;62039;50.000;9.064;2022-08-25T14:17:40;2.08;;;1.92;;
73733;SDS011;62039;50.000;9.064;2022-08-25T14:20:18;1.80;;;1.70;;
73733;SDS011;62039;50.000;9.064;2022-08-25T14:22:51;1.75;;;1.65;;
73733;SDS011;62039;50.000;9.064;2022-08-25T14:25:23;1.75;;;1.65;;
73733;SDS011;62039;50.000;9.064;2022-08-25T14:27:53;1.75;;;1.65;;
73733;SDS011;62039;50.000;9.064;2022-08-25T14:30:40;1.52;;;1.42;;
73733;SDS011;62039;50.000;9.064;2022-08-25T14:33:13;1.83;;;1.73;;
73733;SDS011;62039;50.000;9.064;2022-08-25T14:35:40;2.10;;;1.80;;
73733;SDS011;62039;50.000;9.064;2022-08-25T14:38:12;2.08;;;1.70;;
73733;SDS011;62039;50.000;9.064;2022-08-25T14:40:39;1.48;;;1.38;;
73733;SDS011;62039;50.000;9.064;2022-08-25T14:43:06;1.52;;;1.42;;
73733;SDS011;62039;50.000;9.064;2022-08-25T14:45:35;1.70;;;1.60;;
73733;SDS011;62039;50.000;9.064;2022-08-25T14:48:06;2.08;;;1.88;;
73733;SDS011;62039;50.000;9.064;2022-08-25T14:50:37;1.70;;;1.60;;
73733;SDS011;62039;50.000;9.064;2022-08-25T14:53:07;2.60;;;1.67;;
73733;SDS011;62039;50.000;9.064;2022-08-25T14:55:35;1.80;;;1.70;;
73733;SDS011;62039;50.000;9.064;2022-08-25T14:58:01;1.90;;;1.80;;
73733;SDS011;62039;50.000;9.064;2022-08-25T15:00:31;1.83;;;1.73;;
73733;SDS011;62039;50.000;9.064;2022-08-25T15:03:00;1.85;;;1.75;;
73733;SDS011;62039;50.000;9.064;2022-08-25T15:05:27;2.00;;;1.90;;
73733;SDS011;62039;50.000;9.064;2022-08-25T15:07:56;1.80;;;1.70;;
73733;SDS011;62039;50.000;9.064;2022-08-25T15:10:23;1.90;;;1.80;;
73733;SDS011;62039;50.000;9.064;2022-08-25T15:12:50;1.95;;;1.85;;
73733;SDS011;62039;50.000;9.064;2022-08-25T15:15:20;1.85;;;1.75;;
73733;SDS011;62039;50.000;9.064;2022-08-25T15:17:46;1.88;;;1.77;;
73733;SDS011;62039;50.000;9.064;2022-08-25T15:20:15;1.92;;;1.80;;
73733;SDS011;62039;50.000;9.064;2022-08-25T15:22:42;2.10;;;1.90;;
73733;SDS011;62039;50.000;9.064;2022-08-25T15:25:10;2.80;;;2.15;;
73733;SDS011;62039;50.000;9.064;2022-08-25T15:27:37;2.20;;;2.03;;
73733;SDS011;62039;50.000;9.064;2022-08-25T15:30:03;1.85;;;1.75;;
73733;SDS011;62039;50.000;9.064;2022-08-25T15:32:31;1.98;;;1.88;;